Time;durP1;ratioP1;P1;durP2;ratioP2;P2;SDS_P1;SDS_P2;PMS_P1;PMS_P2;Temp;Humidity;BMP_temperature;BMP_pressure;BME280_temperature;BME280_humidity;BME280_pressure;Samples;Min_cycle;Max_cycle;Signal;HPM_P1;HPM_P2
2022/10/31 00:00:08;;;;;;;63.85;35.35;;;;;;;11.11;100.00;101752.59;2103768;28;20834;-75
2022/10/31 00:01:30;;;;;;;68.75;37.97;;;;;;;11.07;100.00;101760.69;2102744;28;20049;-75
2022/10/31 00:02:31;;;;;;;70.88;36.20;;;;;;;11.04;100.00;101766.06;2103796;28;20040;-77
2022/10/31 00:03:33;;;;;;;71.72;36.75;;;;;;;11.04;100.00;101763.41;2102969;28;38816;-76
2022/10/31 00:04:35;;;;;;;65.60;34.35;;;;;;;11.04;100.00;101757.16;2103541;28;27844;-76
2022/10/31 00:05:44;;;;;;;81.38;40.30;;;;;;;11.04;100.00;101758.03;2102842;28;36483;-76
2022/10/31 00:06:46;;;;;;;80.85;42.15;;;;;;;11.05;100.00;101765.19;2102690;28;35756;-77
2022/10/31 00:07:52;;;;;;;76.55;38.83;;;;;;;11.07;100.00;101768.72;2100921;28;20033;-76
2022/10/31 00:08:59;;;;;;;87.30;41.40;;;;;;;11.08;100.00;101765.13;2097224;28;39964;-76
2022/10/31 00:10:00;;;;;;;66.38;36.38;;;;;;;11.08;100.00;101770.47;2097634;28;32158;-77
2022/10/31 00:11:03;;;;;;;60.92;33.45;;;;;;;11.06;100.00;101772.28;2097250;28;20074;-77
2022/10/31 00:12:05;;;;;;;59.45;32.00;;;;;;;11.06;100.00;101772.28;2096370;28;35205;-77
2022/10/31 00:13:08;;;;;;;74.35;37.28;;;;;;;11.02;100.00;101767.88;2097250;28;32399;-76
2022/10/31 00:14:13;;;;;;;59.20;32.75;;;;;;;11.01;100.00;101773.25;2096889;28;29655;-77
2022/10/31 00:15:15;;;;;;;66.20;34.95;;;;;;;11.00;100.00;101776.84;2096317;28;37505;-77
2022/10/31 00:16:24;;;;;;;70.22;36.42;;;;;;;11.02;100.00;101778.59;2097449;28;20041;-76
2022/10/31 00:17:26;;;;;;;67.78;38.15;;;;;;;11.00;100.00;101772.38;2096508;28;41614;-76
2022/10/31 00:18:27;;;;;;;77.00;38.33;;;;;;;11.03;100.00;101779.47;2097496;28;35385;-77
2022/10/31 00:19:29;;;;;;;70.53;36.58;;;;;;;11.01;100.00;101770.59;2096845;28;26707;-77
2022/10/31 00:20:31;;;;;;;60.95;34.17;;;;;;;11.05;100.00;101770.53;2097457;28;32405;-76
2022/10/31 00:21:34;;;;;;;87.38;43.28;;;;;;;11.07;100.00;101774.09;2096378;28;36339;-75
2022/10/31 00:22:36;;;;;;;71.32;39.90;;;;;;;11.05;100.00;101781.25;2097102;28;37520;-76
2022/10/31 00:23:37;;;;;;;68.63;37.03;;;;;;;11.04;100.00;101778.59;2096504;28;32216;-75
2022/10/31 00:24:39;;;;;;;66.68;35.45;;;;;;;10.99;100.00;101786.66;2097384;28;20037;-74
2022/10/31 00:25:43;;;;;;;59.47;33.88;;;;;;;10.99;100.00;101785.78;2096707;28;32916;-75
2022/10/31 00:26:45;;;;;;;65.15;36.50;;;;;;;11.01;100.00;101784.84;2096725;28;38413;-75
2022/10/31 00:27:49;;;;;;;82.47;40.85;;;;;;;10.98;100.00;101784.91;2096653;28;26570;-78
2022/10/31 00:28:51;;;;;;;78.65;39.47;;;;;;;10.96;100.00;101789.38;2097446;28;34590;-77
2022/10/31 00:29:55;;;;;;;66.45;35.75;;;;;;;10.95;100.00;101792.09;2088172;28;26084;-76
2022/10/31 00:31:01;;;;;;;65.35;35.40;;;;;;;10.91;100.00;101785.88;2089395;28;20052;-77
2022/10/31 00:32:03;;;;;;;61.17;33.83;;;;;;;10.88;100.00;101791.28;2095947;28;33884;-77
2022/10/31 00:33:05;;;;;;;57.30;33.30;;;;;;;10.83;100.00;101791.31;2080020;28;27763;-77
2022/10/31 00:34:07;;;;;;;53.97;31.45;;;;;;;10.80;100.00;101799.41;2088336;28;29053;-77
2022/10/31 00:35:10;;;;;;;51.55;30.75;;;;;;;10.75;100.00;101797.63;2096796;28;20079;-77
2022/10/31 00:36:16;;;;;;;53.17;31.20;;;;;;;10.71;100.00;101796.78;2097031;28;20841;-77
2022/10/31 00:37:17;;;;;;;63.25;34.67;;;;;;;10.68;100.00;101791.47;2096736;28;26885;-77
2022/10/31 00:38:19;;;;;;;61.38;34.50;;;;;;;10.65;100.00;101796.84;2088681;28;21003;-77
2022/10/31 00:39:21;;;;;;;61.33;33.17;;;;;;;10.65;100.00;101804.88;2097380;28;20072;-77
2022/10/31 00:40:23;;;;;;;68.72;37.17;;;;;;;10.62;100.00;101800.47;2097248;28;24055;-76
2022/10/31 00:41:26;;;;;;;67.40;35.92;;;;;;;10.63;100.00;101799.53;2097776;28;20811;-77
2022/10/31 00:42:27;;;;;;;73.22;37.05;;;;;;;10.63;100.00;101804.91;2096482;28;29430;-77
2022/10/31 00:43:31;;;;;;;57.70;30.77;;;;;;;10.60;100.00;101796.88;2089073;28;20918;-77
2022/10/31 00:44:33;;;;;;;67.55;34.92;;;;;;;10.58;100.00;101803.16;2088280;28;25443;-77
2022/10/31 00:45:34;;;;;;;59.65;32.15;;;;;;;10.57;100.00;101799.63;2088353;28;32247;-77
2022/10/31 00:46:36;;;;;;;64.70;34.70;;;;;;;10.57;100.00;101802.28;2087362;28;25274;-77
2022/10/31 00:47:38;;;;;;;68.57;36.17;;;;;;;10.59;100.00;101808.50;2097047;28;20037;-77
2022/10/31 00:48:43;;;;;;;77.07;38.20;;;;;;;10.58;100.00;101805.84;2096823;28;22079;-77
2022/10/31 00:49:46;;;;;;;68.90;36.15;;;;;;;10.54;100.00;101810.34;2088755;28;20891;-76
2022/10/31 00:50:48;;;;;;;52.95;28.90;;;;;;;10.53;100.00;101813.91;2088888;28;20041;-76
2022/10/31 00:51:53;;;;;;;76.18;38.75;;;;;;;10.49;100.00;101813.03;2095870;28;33285;-77
2022/10/31 00:52:54;;;;;;;65.53;32.05;;;;;;;10.49;100.00;101818.41;2096430;28;21017;-77
2022/10/31 00:53:56;;;;;;;58.53;34.03;;;;;;;10.46;100.00;101812.19;2088433;28;20257;-77
2022/10/31 00:54:58;;;;;;;66.25;35.08;;;;;;;10.43;100.00;101817.59;2096258;28;32024;-77
2022/10/31 00:56:00;;;;;;;57.40;33.05;;;;;;;10.42;100.00;101826.50;2097602;28;20176;-77
2022/10/31 00:57:03;;;;;;;55.78;31.60;;;;;;;10.40;100.00;101813.13;2104879;28;20048;-77
2022/10/31 00:58:04;;;;;;;62.78;34.10;;;;;;;10.40;100.00;101818.47;2105426;28;20814;-75
2022/10/31 00:59:06;;;;;;;58.70;33.17;;;;;;;10.38;100.00;101819.41;2097453;28;20131;-75
2022/10/31 01:00:10;;;;;;;68.57;34.00;;;;;;;10.39;100.00;101821.16;2096612;28;20041;-78
2022/10/31 01:01:12;;;;;;;81.53;38.10;;;;;;;10.40;100.00;101822.94;2088466;28;20042;-76
2022/10/31 01:02:14;;;;;;;64.97;33.70;;;;;;;10.37;100.00;101823.84;2088629;28;20080;-75
2022/10/31 01:03:16;;;;;;;76.35;36.90;;;;;;;10.38;100.00;101819.41;2088538;28;20123;-78
2022/10/31 01:04:23;;;;;;;67.03;38.08;;;;;;;10.39;100.00;101821.16;2096942;28;20048;-76
2022/10/31 01:05:24;;;;;;;68.38;36.05;;;;;;;10.35;100.00;101830.13;2096652;28;23242;-76
2022/10/31 01:06:26;;;;;;;68.97;34.90;;;;;;;10.31;100.00;101830.13;2096630;28;26354;-76
2022/10/31 01:07:31;;;;;;;79.03;40.15;;;;;;;10.32;100.00;101829.25;2096336;28;21761;-76
2022/10/31 01:08:37;;;;;;;69.50;35.70;;;;;;;10.29;100.00;101829.25;2096916;28;20053;-77
2022/10/31 01:09:38;;;;;;;73.57;36.90;;;;;;;10.28;100.00;101826.56;2096239;28;20103;-77
2022/10/31 01:10:40;;;;;;;80.60;40.05;;;;;;;10.24;100.00;101830.19;2088358;28;28476;-75
2022/10/31 01:11:42;;;;;;;57.53;30.92;;;;;;;10.23;100.00;101831.97;2088580;28;20045;-76
2022/10/31 01:12:47;;;;;;;69.70;35.38;;;;;;;10.16;100.00;101823.97;2087958;28;20040;-76
2022/10/31 01:13:53;;;;;;;63.78;31.88;;;;;;;10.12;100.00;101833.81;2095987;28;33046;-77
2022/10/31 01:14:55;;;;;;;70.15;36.70;;;;;;;10.09;100.00;101839.22;2096654;28;21425;-76
2022/10/31 01:15:59;;;;;;;70.82;36.35;;;;;;;10.07;100.00;101833.84;2096009;28;31820;-76
2022/10/31 01:17:01;;;;;;;62.80;33.78;;;;;;;10.06;100.00;101839.22;2096614;28;29466;-76
2022/10/31 01:18:03;;;;;;;72.07;37.15;;;;;;;10.02;100.00;101835.66;2087805;28;20052;-77
2022/10/31 01:19:05;;;;;;;77.38;36.22;;;;;;;10.02;100.00;101837.47;2088042;28;20994;-77
2022/10/31 01:20:12;;;;;;;86.10;39.47;;;;;;;10.02;100.00;101832.13;2095806;28;20041;-77
2022/10/31 01:21:20;;;;;;;81.45;40.92;;;;;;;10.03;100.00;101831.19;2096112;28;30752;-78
2022/10/31 01:22:23;;;;;;;84.15;39.72;;;;;;;10.01;100.00;101836.56;2072626;28;20054;-77
2022/10/31 01:23:25;;;;;;;77.88;36.08;;;;;;;10.01;100.00;101836.56;2081636;28;20046;-77
2022/10/31 01:24:26;;;;;;;70.00;37.13;;;;;;;10.00;100.00;101836.59;2096057;28;27869;-77
2022/10/31 01:25:28;;;;;;;76.80;38.53;;;;;;;9.98;100.00;101833.00;2088142;28;23589;-77
2022/10/31 01:26:32;;;;;;;85.80;39.72;;;;;;;9.94;100.00;101833.06;2087633;28;29749;-78
2022/10/31 01:27:34;;;;;;;96.10;42.28;;;;;;;9.92;100.00;101831.25;2096839;28;21007;-78
2022/10/31 01:28:43;;;;;;;79.78;40.00;;;;;;;9.93;100.00;101827.72;2097297;28;20033;-78
2022/10/31 01:29:45;;;;;;;79.75;37.58;;;;;;;9.92;100.00;101826.81;2079882;28;20042;-78
2022/10/31 01:30:47;;;;;;;86.65;42.25;;;;;;;9.90;100.00;101825.03;2081585;28;20958;-78
2022/10/31 01:31:49;;;;;;;90.05;40.95;;;;;;;9.87;100.00;101825.97;2097091;28;23542;-77
2022/10/31 01:32:50;;;;;;;83.55;39.00;;;;;;;9.86;100.00;101821.50;2115660;22;23113;-78
2022/10/31 01:33:53;;;;;;;82.15;38.13;;;;;;;9.84;100.00;101817.94;2090851;28;29702;-79
2022/10/31 01:34:55;;;;;;;78.82;37.17;;;;;;;9.82;100.00;101822.41;2087849;28;20924;-78
2022/10/31 01:35:57;;;;;;;82.35;38.70;;;;;;;9.81;100.00;101819.75;2088544;28;20033;-79
2022/10/31 01:37:01;;;;;;;91.75;42.10;;;;;;;9.79;100.00;101822.44;2087484;28;20041;-79
2022/10/31 01:38:03;;;;;;;80.05;38.38;;;;;;;9.75;100.00;101826.03;2088310;28;20041;-77
2022/10/31 01:39:13;;;;;;;75.90;39.30;;;;;;;9.73;100.00;101827.81;2088100;28;27319;-78
2022/10/31 01:40:17;;;;;;;88.78;38.47;;;;;;;9.72;100.00;101828.72;2087896;28;30483;-78
2022/10/31 01:41:23;;;;;;;93.28;39.47;;;;;;;9.71;100.00;101833.16;2087204;28;26474;-78
2022/10/31 01:42:25;;;;;;;87.40;41.88;;;;;;;9.71;100.00;101826.94;2087572;28;29480;-78
2022/10/31 01:43:56;;;;;;;89.40;42.47;;;;;;;9.71;100.00;101824.28;2079374;28;28946;-78
2022/10/31 01:45:01;;;;;;;90.22;38.95;;;;;;;9.71;100.00;101824.28;2084228;28;29577;-78
2022/10/31 01:46:03;;;;;;;97.75;42.35;;;;;;;9.73;100.00;101825.16;2088064;28;20095;-78
2022/10/31 01:47:16;;;;;;;105.93;45.45;;;;;;;9.78;100.00;101834.03;2087756;28;27577;-78
2022/10/31 01:48:24;;;;;;;97.63;44.90;;;;;;;9.78;100.00;101828.69;2081989;28;23739;-78
2022/10/31 01:49:46;;;;;;;102.78;45.63;;;;;;;9.80;100.00;101834.91;2081579;28;20049;-78
2022/10/31 01:50:52;;;;;;;100.43;42.38;;;;;;;9.78;100.00;101833.13;2091186;28;20996;-78
2022/10/31 01:52:04;;;;;;;88.15;39.50;;;;;;;9.77;100.00;101836.72;2087298;28;22207;-79
2022/10/31 01:53:09;;;;;;;89.60;42.58;;;;;;;9.78;100.00;101839.38;2087957;28;25636;-78
2022/10/31 01:54:17;;;;;;;96.10;42.38;;;;;;;9.80;100.00;101842.94;2088042;28;20164;-78
2022/10/31 01:55:30;;;;;;;82.20;39.53;;;;;;;9.80;100.00;101839.34;2087885;28;20852;-78
2022/10/31 01:56:39;;;;;;;100.95;43.13;;;;;;;9.80;100.00;101842.03;2087893;28;25551;-78
2022/10/31 01:57:45;;;;;;;104.72;42.70;;;;;;;9.80;100.00;101842.94;2081030;28;28928;-78
2022/10/31 01:58:47;;;;;;;111.40;48.58;;;;;;;9.84;100.00;101839.34;2081053;28;34102;-78
2022/10/31 01:59:57;;;;;;;119.90;48.53;;;;;;;9.88;100.00;101834.88;2087750;28;20204;-78
2022/10/31 02:01:02;;;;;;;123.40;51.28;;;;;;;9.89;100.00;101840.22;2086825;28;20905;-78
2022/10/31 02:02:06;;;;;;;116.65;46.95;;;;;;;9.89;100.00;101836.66;2072053;28;34270;-78
2022/10/31 02:03:07;;;;;;;111.15;47.22;;;;;;;9.88;100.00;101835.75;2071887;28;20045;-78
2022/10/31 02:04:09;;;;;;;99.78;43.55;;;;;;;9.87;100.00;101835.75;2091332;28;29868;-79
2022/10/31 02:05:17;;;;;;;127.85;53.70;;;;;;;9.87;100.00;101838.41;2096398;28;20041;-79
2022/10/31 02:06:38;;;;;;;104.15;44.47;;;;;;;9.83;100.00;101840.22;2087937;28;20049;-79
2022/10/31 02:07:51;;;;;;;115.25;46.45;;;;;;;9.79;100.00;101835.81;2084760;28;20918;-79
2022/10/31 02:08:55;;;;;;;101.70;43.17;;;;;;;9.77;100.00;101832.25;2079757;28;35982;-79
2022/10/31 02:09:58;;;;;;;116.35;46.58;;;;;;;9.77;100.00;101837.59;2087297;28;28449;-79
2022/10/31 02:11:01;;;;;;;111.53;47.33;;;;;;;9.77;100.00;101834.91;2087018;28;20945;-79
2022/10/31 02:12:09;;;;;;;133.00;49.80;;;;;;;9.78;100.00;101834.03;2079145;28;20045;-78
2022/10/31 02:13:12;;;;;;;116.50;45.88;;;;;;;9.77;100.00;101836.72;2072410;28;20043;-78
2022/10/31 02:14:23;;;;;;;123.22;48.60;;;;;;;9.77;100.00;101834.03;2073156;28;20967;-78
2022/10/31 02:15:27;;;;;;;94.18;40.95;;;;;;;9.77;100.00;101840.28;2071464;28;20997;-78
2022/10/31 02:16:28;;;;;;;108.65;46.53;;;;;;;9.76;100.00;101843.81;2064158;28;20039;-78
2022/10/31 02:17:31;;;;;;;114.60;47.13;;;;;;;9.77;100.00;101842.06;2071420;28;23435;-78
2022/10/31 02:18:33;;;;;;;138.82;55.53;;;;;;;9.82;100.00;101840.25;2071289;28;20900;-78
2022/10/31 02:19:40;;;;;;;144.38;56.78;;;;;;;9.82;100.00;101837.59;2079267;28;20050;-78
2022/10/31 02:20:58;;;;;;;126.88;49.40;;;;;;;9.82;100.00;101840.25;2071232;28;20046;-78
2022/10/31 02:22:11;;;;;;;110.45;45.10;;;;;;;9.79;100.00;101833.13;2071285;28;20088;-78
2022/10/31 02:23:50;;;;;;;109.50;45.42;;;;;;;9.77;100.00;101837.59;2064769;28;20162;-78
2022/10/31 02:25:01;;;;;;;108.60;46.17;;;;;;;9.75;100.00;101824.22;2074161;28;20050;-78
2022/10/31 02:26:24;;;;;;;108.43;46.90;;;;;;;9.75;100.00;101832.25;2079961;28;20041;-78
2022/10/31 02:28:06;;;;;;;105.57;44.17;;;;;;;9.73;100.00;101830.50;2079498;28;20057;-78
2022/10/31 02:29:56;;;;;;;98.43;41.53;;;;;;;9.69;100.00;101840.31;2076498;28;20834;-78
2022/10/31 02:31:38;;;;;;;110.60;42.78;;;;;;;9.71;100.00;101840.31;2090894;28;20056;-78
2022/10/31 02:32:52;;;;;;;134.07;51.88;;;;;;;9.73;100.00;101838.53;2087076;28;20049;-79
2022/10/31 02:34:30;;;;;;;118.30;44.65;;;;;;;9.72;100.00;101844.75;2081717;28;20075;-78
2022/10/31 02:36:12;;;;;;;108.63;45.42;;;;;;;9.68;100.00;101838.53;2092282;28;23522;-78
2022/10/31 02:37:25;;;;;;;101.28;44.38;;;;;;;9.67;100.00;101841.19;2078835;28;20042;-78
2022/10/31 02:38:58;;;;;;;140.57;53.20;;;;;;;9.69;100.00;101837.66;2070841;28;20084;-78
2022/10/31 02:40:32;;;;;;;121.57;42.45;;;;;;;9.66;100.00;101844.78;2085154;28;20152;-79
2022/10/31 02:42:21;;;;;;;98.97;42.97;;;;;;;9.62;100.00;101840.34;2082616;28;20038;-78
2022/10/31 02:43:36;;;;;;;132.63;47.90;;;;;;;9.54;100.00;101845.72;2094370;28;31346;-77
2022/10/31 02:45:03;;;;;;;112.88;43.22;;;;;;;9.50;100.00;101850.19;2087361;28;20077;-77
2022/10/31 02:46:43;;;;;;;110.22;41.50;;;;;;;9.45;100.00;101846.66;2081928;28;24628;-77
2022/10/31 02:47:53;;;;;;;111.80;41.05;;;;;;;9.40;100.00;101837.75;2070686;28;20061;-77
2022/10/31 02:49:03;;;;;;;97.40;41.40;;;;;;;9.36;100.00;101849.34;2081605;28;20041;-77
2022/10/31 02:50:23;;;;;;;119.15;47.55;;;;;;;9.32;100.00;101843.13;2087512;28;20037;-77
2022/10/31 02:51:25;;;;;;;111.90;39.88;;;;;;;9.30;100.00;101855.59;2083101;28;20049;-77
2022/10/31 02:52:30;;;;;;;123.75;46.08;;;;;;;9.28;100.00;101853.84;2080022;28;33137;-77
2022/10/31 02:53:39;;;;;;;115.53;45.95;;;;;;;9.30;100.00;101849.38;2080691;28;20042;-78
2022/10/31 02:54:47;;;;;;;112.60;41.42;;;;;;;9.30;100.00;101857.41;2089284;28;20046;-77
2022/10/31 02:56:06;;;;;;;101.25;43.03;;;;;;;9.25;100.00;101849.38;2087379;28;20164;-77
2022/10/31 02:57:08;;;;;;;106.68;42.30;;;;;;;9.25;100.00;101853.84;2073329;28;26024;-76
2022/10/31 02:58:20;;;;;;;121.30;47.55;;;;;;;9.25;100.00;101856.53;2072426;28;20878;-76
2022/10/31 02:59:23;;;;;;;109.90;45.83;;;;;;;9.26;100.00;101852.94;2072855;28;20101;-76
2022/10/31 03:00:25;;;;;;;123.65;47.38;;;;;;;9.26;100.00;101850.25;2071511;28;20039;-77
2022/10/31 03:02:02;;;;;;;118.88;48.63;;;;;;;9.27;100.00;101855.59;2079205;28;20042;-77
2022/10/31 03:03:13;;;;;;;124.15;49.08;;;;;;;9.24;100.00;101858.31;2083926;28;20786;-77
2022/10/31 03:04:28;;;;;;;131.77;49.63;;;;;;;9.25;100.00;101859.19;2080170;28;20181;-77
2022/10/31 03:05:53;;;;;;;119.05;46.25;;;;;;;9.21;100.00;101852.97;2082695;28;20035;-77
2022/10/31 03:07:11;;;;;;;122.25;47.40;;;;;;;9.20;100.00;101848.50;2082124;28;20194;-77
2022/10/31 03:08:18;;;;;;;98.88;40.20;;;;;;;9.16;100.00;101850.28;2081434;28;20948;-77
2022/10/31 03:09:46;;;;;;;106.07;39.00;;;;;;;9.12;100.00;101851.19;2071655;28;20054;-77
2022/10/31 03:10:58;;;;;;;104.38;42.85;;;;;;;9.06;100.00;101855.66;2062251;28;20042;-77
2022/10/31 03:12:09;;;;;;;138.68;47.63;;;;;;;9.07;100.00;101853.00;2078141;28;20172;-77
2022/10/31 03:13:33;;;;;;;124.55;46.33;;;;;;;9.09;100.00;101853.00;2087161;28;20334;-77
2022/10/31 03:14:52;;;;;;;111.25;44.45;;;;;;;9.08;100.00;101860.13;2081692;28;20033;-78
2022/10/31 03:16:11;;;;;;;143.75;46.95;;;;;;;9.06;100.00;101861.91;2072920;28;20054;-76
2022/10/31 03:17:32;;;;;;;119.07;43.45;;;;;;;9.03;100.00;101859.25;2077364;28;20783;-76
2022/10/31 03:18:56;;;;;;;128.75;46.17;;;;;;;9.08;100.00;101867.22;2083517;28;30613;-78
2022/10/31 03:20:00;;;;;;;129.60;45.25;;;;;;;9.08;100.00;101861.88;2084499;28;20041;-78
2022/10/31 03:21:41;;;;;;;112.75;46.03;;;;;;;9.03;100.00;101869.03;2087071;28;27978;-77
2022/10/31 03:22:44;;;;;;;114.05;41.85;;;;;;;8.99;100.00;101860.16;2087953;28;20054;-75
2022/10/31 03:23:50;;;;;;;150.88;43.03;;;;;;;8.96;100.00;101865.47;2086707;28;25091;-76
2022/10/31 03:24:56;;;;;;;123.50;47.17;;;;;;;8.98;100.00;101871.72;2072137;28;20054;-76
2022/10/31 03:26:01;;;;;;;122.45;46.63;;;;;;;8.97;100.00;101865.50;2080568;28;20176;-76
2022/10/31 03:27:07;;;;;;;127.25;50.25;;;;;;;9.00;100.00;101869.91;2080318;28;20912;-76
2022/10/31 03:28:14;;;;;;;121.65;43.10;;;;;;;8.99;100.00;101870.84;2079518;28;21019;-76
2022/10/31 03:29:21;;;;;;;115.88;45.50;;;;;;;8.96;100.00;101868.16;2078896;28;20042;-77
2022/10/31 03:30:26;;;;;;;112.15;43.60;;;;;;;8.94;100.00;101870.81;2079035;28;20867;-76
2022/10/31 03:31:43;;;;;;;122.18;43.92;;;;;;;8.93;100.00;101874.38;2079527;28;20042;-76
2022/10/31 03:32:54;;;;;;;126.78;46.22;;;;;;;8.92;100.00;101875.28;2073681;28;20042;-76
2022/10/31 03:33:59;;;;;;;115.00;46.45;;;;;;;8.99;100.00;101868.16;2063578;28;20835;-76
2022/10/31 03:35:06;;;;;;;107.40;45.72;;;;;;;8.98;100.00;101869.91;2074810;28;20080;-77
2022/10/31 03:36:12;;;;;;;116.25;42.83;;;;;;;9.01;100.00;101865.47;2088811;28;20034;-77
2022/10/31 03:37:18;;;;;;;133.32;49.47;;;;;;;9.00;100.00;101863.69;2070982;28;20545;-76
2022/10/31 03:38:22;;;;;;;146.75;50.55;;;;;;;9.06;100.00;101875.28;2072760;28;20110;-76
2022/10/31 03:39:25;;;;;;;134.30;49.00;;;;;;;9.05;100.00;101870.81;2087262;28;20289;-76
2022/10/31 03:40:29;;;;;;;139.63;47.85;;;;;;;9.03;100.00;101864.59;2078811;28;20042;-76
2022/10/31 03:41:38;;;;;;;141.95;44.40;;;;;;;9.05;100.00;101870.81;2078779;28;22662;-78
2022/10/31 03:42:50;;;;;;;173.65;46.55;;;;;;;9.08;100.00;101864.56;2087394;28;20894;-77
2022/10/31 03:44:01;;;;;;;148.25;45.47;;;;;;;9.07;100.00;101869.03;2090027;28;20115;-77
2022/10/31 03:45:18;;;;;;;120.43;45.05;;;;;;;9.07;100.00;101866.34;2088937;28;20148;-78
2022/10/31 03:46:21;;;;;;;208.50;48.63;;;;;;;9.11;100.00;101867.22;2074027;28;20402;-77
2022/10/31 03:47:24;;;;;;;203.57;48.78;;;;;;;9.12;100.00;101861.00;2075317;28;20042;-77
2022/10/31 03:48:26;;;;;;;216.10;48.85;;;;;;;9.15;100.00;101866.31;2079994;28;20958;-77
2022/10/31 03:49:30;;;;;;;222.73;39.72;;;;;;;9.15;100.00;101867.25;2072490;28;25381;-78
2022/10/31 03:51:09;;;;;;;185.43;40.97;;;;;;;9.14;100.00;101873.47;2073009;28;20768;-78
2022/10/31 03:52:59;;;;;;;234.60;42.22;;;;;;;9.15;100.00;101871.66;2087626;28;20053;-78
2022/10/31 03:54:23;;;;;;;121.70;36.65;;;;;;;9.14;100.00;101873.47;2087278;28;20082;-77
2022/10/31 03:55:39;;;;;;;269.10;37.42;;;;;;;9.14;100.00;101872.56;2083467;28;20841;-76
2022/10/31 03:56:51;;;;;;;182.52;36.97;;;;;;;9.15;100.00;101874.34;2075823;28;22060;-76
2022/10/31 03:58:07;;;;;;;261.33;45.03;;;;;;;9.15;100.00;101871.66;2077794;28;20167;-78
2022/10/31 03:59:24;;;;;;;379.88;51.45;;;;;;;9.24;100.00;101871.69;2083312;28;22455;-78
2022/10/31 04:00:26;;;;;;;215.27;45.15;;;;;;;9.26;100.00;101868.97;2080530;28;20045;-78
2022/10/31 04:01:34;;;;;;;184.45;44.88;;;;;;;9.29;100.00;101879.66;2073679;28;20100;-78
2022/10/31 04:02:42;;;;;;;250.50;49.65;;;;;;;9.32;100.00;101877.00;2073055;28;20069;-78
2022/10/31 04:03:45;;;;;;;336.33;53.42;;;;;;;9.40;100.00;101880.50;2074579;28;20045;-77
2022/10/31 04:04:49;;;;;;;333.73;49.58;;;;;;;9.42;100.00;101878.75;2072404;28;20034;-78
2022/10/31 04:05:55;;;;;;;289.42;49.08;;;;;;;9.45;100.00;101875.16;2073218;28;20068;-78
2022/10/31 04:07:01;;;;;;;292.20;49.33;;;;;;;9.46;100.00;101869.81;2081111;28;20049;-75
2022/10/31 04:08:10;;;;;;;237.30;47.72;;;;;;;9.46;100.00;101876.97;2066189;28;20088;-75
2022/10/31 04:09:16;;;;;;;283.60;50.78;;;;;;;9.49;100.00;101872.50;2075051;28;20042;-77
2022/10/31 04:10:19;;;;;;;365.63;54.58;;;;;;;9.46;100.00;101872.50;2073029;28;20042;-77
2022/10/31 04:11:27;;;;;;;291.10;49.35;;;;;;;9.46;100.00;101872.50;2073725;28;20046;-77
2022/10/31 04:13:03;;;;;;;217.23;47.13;;;;;;;9.47;100.00;101860.88;2081601;28;20172;-77
2022/10/31 04:14:12;;;;;;;;;;;;;;;9.47;100.00;101860.88;2087717;28;20099;-77
2022/10/31 04:15:14;;;;;;;155.02;39.33;;;;;;;9.47;100.00;101871.56;2088503;28;19991;-77
2022/10/31 04:16:18;;;;;;;145.15;42.20;;;;;;;9.45;100.00;101864.47;2080666;28;20120;-77
2022/10/31 04:17:24;;;;;;;232.85;41.63;;;;;;;9.47;100.00;101870.69;2072058;28;20038;-76
2022/10/31 04:18:27;;;;;;;254.70;48.25;;;;;;;9.46;100.00;101874.28;2073655;28;20042;-77
2022/10/31 04:19:28;;;;;;;223.75;47.55;;;;;;;9.48;100.00;101867.16;2080953;28;20849;-77
2022/10/31 04:20:40;;;;;;;141.45;44.30;;;;;;;9.47;100.00;101865.34;2080253;28;20042;-77
2022/10/31 04:21:45;;;;;;;144.32;43.20;;;;;;;9.46;100.00;101880.50;2081818;28;20045;-77
2022/10/31 04:22:47;;;;;;;241.88;40.70;;;;;;;9.44;100.00;101870.69;2080578;28;20053;-77
2022/10/31 04:23:48;;;;;;;116.65;36.15;;;;;;;9.42;100.00;101877.84;2080186;28;20069;-77
2022/10/31 04:24:57;;;;;;;94.28;36.13;;;;;;;9.38;100.00;101876.97;2089719;28;20045;-77
2022/10/31 04:25:59;;;;;;;203.07;40.53;;;;;;;9.38;100.00;101882.31;2096450;28;24677;-77
2022/10/31 04:27:00;;;;;;;189.20;47.22;;;;;;;9.39;100.00;101886.78;2080203;28;20054;-77
2022/10/31 04:28:03;;;;;;;316.33;50.03;;;;;;;9.38;100.00;101884.97;2056346;28;20043;-77
2022/10/31 04:29:05;;;;;;;168.75;46.90;;;;;;;9.42;100.00;101888.53;2056564;28;20082;-76
2022/10/31 04:30:08;;;;;;;132.52;41.05;;;;;;;9.39;100.00;101889.44;2072221;28;20085;-77
2022/10/31 04:31:14;;;;;;;159.45;43.72;;;;;;;9.39;100.00;101888.56;2079729;28;20073;-77
2022/10/31 04:32:18;;;;;;;161.98;42.35;;;;;;;9.39;100.00;101893.91;2072798;28;20038;-77
2022/10/31 04:33:20;;;;;;;219.02;47.30;;;;;;;9.39;100.00;101892.13;2080136;28;20049;-77
2022/10/31 04:34:22;;;;;;;175.23;41.72;;;;;;;9.38;100.00;101895.66;2080255;28;20053;-77
2022/10/31 04:35:24;;;;;;;149.88;42.65;;;;;;;9.35;100.00;101895.69;2080503;28;20045;-78
2022/10/31 04:36:28;;;;;;;173.93;46.22;;;;;;;9.37;100.00;101893.91;2088286;28;21148;-77
2022/10/31 04:37:31;;;;;;;154.93;38.55;;;;;;;9.33;100.00;101889.44;2081895;28;20046;-77
2022/10/31 04:38:33;;;;;;;177.00;40.90;;;;;;;9.32;100.00;101895.69;2080044;28;20053;-77
2022/10/31 04:39:38;;;;;;;204.48;42.72;;;;;;;9.29;100.00;101887.69;2080679;28;20046;-77
2022/10/31 04:40:59;;;;;;;141.05;38.58;;;;;;;9.26;100.00;101893.94;2088687;28;20045;-77
2022/10/31 04:42:19;;;;;;;99.70;36.70;;;;;;;9.26;100.00;101893.03;2088779;28;20084;-77
2022/10/31 04:43:21;;;;;;;128.82;40.72;;;;;;;9.26;100.00;101898.38;2087920;28;20038;-77
2022/10/31 04:44:23;;;;;;;127.20;36.92;;;;;;;9.25;100.00;101891.25;2088490;28;20041;-77
2022/10/31 04:45:27;;;;;;;93.97;33.25;;;;;;;9.24;100.00;101892.13;2088711;28;20992;-76
2022/10/31 04:46:30;;;;;;;147.77;41.20;;;;;;;9.22;100.00;101888.59;2080164;28;20038;-77
2022/10/31 04:47:33;;;;;;;114.07;36.67;;;;;;;9.21;100.00;101889.50;2080467;28;20046;-77
2022/10/31 04:48:35;;;;;;;158.07;35.75;;;;;;;9.19;100.00;101892.16;2088150;28;20058;-76
2022/10/31 04:49:39;;;;;;;262.67;41.25;;;;;;;9.17;100.00;101896.63;2088035;28;20052;-77
2022/10/31 04:50:42;;;;;;;91.47;35.38;;;;;;;9.16;100.00;101893.03;2079833;28;20981;-77
2022/10/31 04:51:44;;;;;;;192.07;40.33;;;;;;;9.16;100.00;101893.03;2080264;28;20089;-77
2022/10/31 04:52:47;;;;;;;75.88;34.38;;;;;;;9.14;100.00;101893.94;2080059;28;20846;-77
2022/10/31 04:53:54;;;;;;;90.88;32.33;;;;;;;9.14;100.00;101894.84;2088936;28;20038;-76
2022/10/31 04:55:14;;;;;;;117.55;38.30;;;;;;;9.12;100.00;101896.63;2094005;28;20807;-76
2022/10/31 04:56:47;;;;;;;142.38;36.55;;;;;;;9.10;100.00;101890.41;2088700;28;20910;-77
2022/10/31 04:57:54;;;;;;;152.95;37.03;;;;;;;9.09;100.00;101891.28;2080844;28;20804;-77
2022/10/31 04:58:58;;;;;;;218.52;39.85;;;;;;;9.10;100.00;101895.75;2080074;28;20937;-76
2022/10/31 05:00:03;;;;;;;137.65;33.05;;;;;;;9.10;100.00;101887.72;2088796;28;20172;-77
2022/10/31 05:01:05;;;;;;;143.25;37.95;;;;;;;9.09;100.00;101891.28;2087855;28;20041;-77
2022/10/31 05:02:07;;;;;;;146.18;39.80;;;;;;;9.09;100.00;101883.25;2080198;28;20042;-76
2022/10/31 05:03:19;;;;;;;152.02;35.80;;;;;;;9.10;100.00;101892.19;2081102;28;20850;-76
2022/10/31 05:04:21;;;;;;;208.07;38.33;;;;;;;9.11;100.00;101888.59;2071507;28;24767;-76
2022/10/31 05:05:27;;;;;;;268.20;40.00;;;;;;;9.10;100.00;101890.41;2072089;28;20050;-76
2022/10/31 05:06:28;;;;;;;202.77;36.92;;;;;;;9.11;100.00;101886.81;2080910;28;20053;-77